Time;durP1;ratioP1;P1;durP2;ratioP2;P2;SDS_P1;SDS_P2;PMS_P1;PMS_P2;Temp;Humidity;BMP_temperature;BMP_pressure;BME280_temperature;BME280_humidity;BME280_pressure;Samples;Min_cycle;Max_cycle;Signal;HPM_P1;HPM_P2
2023/01/25 00:00:47;;;;;;;20.33;13.07;;;4.80;67.70;;;;;;5117015;28;20055;-65
2023/01/25 00:03:12;;;;;;;20.30;13.83;;;4.80;67.70;;;;;;5115448;28;20042;-65
2023/01/25 00:05:38;;;;;;;20.00;13.73;;;4.80;67.70;;;;;;5114724;28;20119;-65
2023/01/25 00:08:04;;;;;;;21.10;14.37;;;4.80;67.70;;;;;;5115331;28;20337;-65
2023/01/25 00:10:30;;;;;;;21.33;14.27;;;4.80;67.70;;;;;;5085856;28;20048;-65
2023/01/25 00:12:56;;;;;;;23.33;15.43;;;4.80;67.60;;;;;;5116073;28;20058;-65
2023/01/25 00:15:22;;;;;;;20.97;12.97;;;4.80;67.60;;;;;;5114536;28;20019;-65
2023/01/25 00:17:48;;;;;;;21.07;14.87;;;4.80;67.60;;;;;;5107325;28;20077;-65
2023/01/25 00:20:15;;;;;;;22.80;14.73;;;4.70;67.60;;;;;;5115173;28;20408;-65
2023/01/25 00:22:40;;;;;;;19.37;13.10;;;4.70;67.70;;;;;;5115324;28;20360;-65
2023/01/25 00:25:06;;;;;;;20.50;12.93;;;4.80;67.70;;;;;;5108341;27;20032;-65
2023/01/25 00:27:32;;;;;;;21.07;13.70;;;4.70;67.60;;;;;;5111929;27;20038;-64
2023/01/25 00:29:58;;;;;;;20.53;13.13;;;4.80;67.70;;;;;;5114198;28;20073;-65
2023/01/25 00:32:35;;;;;;;22.63;14.73;;;4.70;67.60;;;;;;5116043;28;20106;-65
2023/01/25 00:35:03;;;;;;;21.73;14.23;;;4.80;68.30;;;;;;5113376;28;20397;-65
2023/01/25 00:37:48;;;;;;;19.93;13.43;;;4.70;67.60;;;;;;5115115;28;20024;-65
2023/01/25 00:40:14;;;;;;;20.00;12.93;;;4.70;67.70;;;;;;5107010;28;20035;-65
2023/01/25 00:42:40;;;;;;;21.47;13.87;;;4.70;67.60;;;;;;5109410;28;20036;-65
2023/01/25 00:45:09;;;;;;;20.43;13.47;;;4.60;67.60;;;;;;5110136;28;20032;-64
2023/01/25 00:47:35;;;;;;;20.33;13.30;;;4.70;67.70;;;;;;5077196;28;20036;-65
2023/01/25 00:50:05;;;;;;;21.23;14.47;;;4.70;67.70;;;;;;5112389;28;20034;-65
2023/01/25 00:52:31;;;;;;;20.93;14.00;;;4.60;68.30;;;;;;5116286;28;20032;-64
2023/01/25 00:54:58;;;;;;;21.00;13.47;;;4.60;67.70;;;;;;5128851;27;20020;-65
2023/01/25 00:57:24;;;;;;;18.33;13.00;;;4.60;67.80;;;;;;5112233;28;20090;-65
2023/01/25 00:59:49;;;;;;;19.43;13.60;;;4.60;67.90;;;;;;5112647;28;20477;-65
2023/01/25 01:02:15;;;;;;;20.73;13.53;;;4.50;67.70;;;;;;5084503;28;20040;-65
2023/01/25 01:04:41;;;;;;;19.50;13.77;;;4.60;67.60;;;;;;5109443;28;20019;-65
2023/01/25 01:07:08;;;;;;;20.13;13.60;;;4.50;67.60;;;;;;5102407;28;20016;-64
2023/01/25 01:09:33;;;;;;;21.23;14.70;;;4.50;67.70;;;;;;5115538;28;20088;-65
2023/01/25 01:11:59;;;;;;;20.77;14.00;;;4.50;67.70;;;;;;5105096;28;20020;-64
2023/01/25 01:14:25;;;;;;;21.83;13.80;;;4.50;67.60;;;;;;5107943;28;20069;-65
2023/01/25 01:16:51;;;;;;;19.40;14.50;;;4.50;67.60;;;;;;5102928;28;20020;-65
2023/01/25 01:19:17;;;;;;;20.70;13.60;;;4.50;67.70;;;;;;5112909;28;20019;-65
2023/01/25 01:21:43;;;;;;;21.10;13.30;;;4.50;67.60;;;;;;5102132;28;20051;-64
2023/01/25 01:24:10;;;;;;;20.90;14.80;;;4.50;67.70;;;;;;5112039;28;20459;-65
2023/01/25 01:26:35;;;;;;;21.20;14.10;;;4.50;67.70;;;;;;5115631;28;20065;-65
2023/01/25 01:29:01;;;;;;;21.23;14.87;;;4.50;67.70;;;;;;5097614;28;20027;-65
2023/01/25 01:31:27;;;;;;;20.53;14.27;;;4.50;67.60;;;;;;5114361;28;20030;-65
2023/01/25 01:34:03;;;;;;;21.93;14.80;;;4.50;67.60;;;;;;5112346;27;20382;-64
2023/01/25 01:36:30;;;;;;;22.57;14.40;;;4.50;67.70;;;;;;5116156;28;20023;-65
2023/01/25 01:38:58;;;;;;;24.43;15.47;;;4.50;67.70;;;;;;5114302;28;20088;-65
2023/01/25 01:41:24;;;;;;;22.23;15.00;;;4.50;67.70;;;;;;5110143;28;20441;-64
2023/01/25 01:43:52;;;;;;;21.13;14.50;;;4.50;67.70;;;;;;5092260;28;20046;-64
2023/01/25 01:46:23;;;;;;;21.83;14.03;;;4.50;67.70;;;;;;5110552;28;20024;-65
2023/01/25 01:49:03;;;;;;;20.25;14.13;;;4.50;67.70;;;;;;5115354;28;20057;-64
2023/01/25 01:51:45;;;;;;;20.23;13.90;;;4.50;67.80;;;;;;5097709;28;20016;-65
2023/01/25 01:54:19;;;;;;;19.10;13.37;;;4.40;67.70;;;;;;5081205;28;20036;-64
2023/01/25 01:56:45;;;;;;;22.07;14.03;;;4.40;67.80;;;;;;5113295;28;20063;-65
2023/01/25 01:59:11;;;;;;;21.33;13.30;;;4.40;67.80;;;;;;5091543;28;20117;-65
2023/01/25 02:01:38;;;;;;;22.93;15.03;;;4.40;67.80;;;;;;5093631;28;20460;-64
2023/01/25 02:04:06;;;;;;;21.80;14.80;;;4.40;67.80;;;;;;5096359;28;20055;-65
2023/01/25 02:06:42;;;;;;;21.57;15.53;;;4.40;67.80;;;;;;5124447;27;20031;-64
2023/01/25 02:09:10;;;;;;;19.70;13.33;;;4.40;67.80;;;;;;5114601;28;20160;-64
2023/01/25 02:11:37;;;;;;;21.80;15.00;;;4.40;67.90;;;;;;5108852;28;20106;-65
2023/01/25 02:14:03;;;;;;;21.83;14.43;;;4.30;67.80;;;;;;5114538;28;20047;-65
2023/01/25 02:16:29;;;;;;;21.93;14.43;;;4.30;67.90;;;;;;5106786;28;20098;-65
2023/01/25 02:18:57;;;;;;;24.50;16.03;;;4.40;68.00;;;;;;5124998;27;20217;-65
2023/01/25 02:21:24;;;;;;;22.70;14.70;;;4.40;68.00;;;;;;5112279;27;20386;-65
2023/01/25 02:24:03;;;;;;;23.13;16.03;;;4.40;67.90;;;;;;5113223;28;20035;-65
2023/01/25 02:26:30;;;;;;;23.60;14.90;;;4.40;67.90;;;;;;5094990;28;20042;-64
2023/01/25 02:29:02;;;;;;;22.87;15.60;;;4.40;67.80;;;;;;5111922;28;20394;-64
2023/01/25 02:31:28;;;;;;;24.30;15.60;;;4.40;67.80;;;;;;5113671;28;20103;-64
2023/01/25 02:33:54;;;;;;;23.57;15.80;;;4.40;67.80;;;;;;5096927;28;20059;-64
2023/01/25 02:36:25;;;;;;;22.53;15.10;;;4.40;67.80;;;;;;5112625;28;20031;-65
2023/01/25 02:38:51;;;;;;;21.88;15.15;;;4.30;67.90;;;;;;5111514;28;20368;-65
2023/01/25 02:41:26;;;;;;;23.10;15.77;;;4.30;67.90;;;;;;5112687;28;20341;-65
2023/01/25 02:43:53;;;;;;;23.43;15.00;;;4.30;67.90;;;;;;5113040;27;20119;-64
2023/01/25 02:46:26;;;;;;;19.33;13.53;;;4.30;67.90;;;;;;5112703;28;20020;-64
2023/01/25 02:48:55;;;;;;;;;;;4.30;67.90;;;;;;5113311;28;20110;-64
2023/01/25 02:51:23;;;;;;;20.10;13.30;;;4.30;67.90;;;;;;5102145;28;19908;-64
2023/01/25 02:53:49;;;;;;;20.13;14.43;;;4.30;68.00;;;;;;5113098;28;20024;-65
2023/01/25 02:56:16;;;;;;;18.77;12.67;;;4.30;68.00;;;;;;5111428;28;21634;-64
2023/01/25 02:58:43;;;;;;;20.73;14.03;;;4.30;68.00;;;;;;5108915;28;20135;-64
2023/01/25 03:01:10;;;;;;;21.50;14.40;;;4.30;68.00;;;;;;5112450;28;20460;-64
2023/01/25 03:03:37;;;;;;;21.60;14.63;;;4.30;68.00;;;;;;5095505;28;20435;-65
2023/01/25 03:06:04;;;;;;;19.90;14.10;;;4.30;68.00;;;;;;5112533;28;20022;-64
2023/01/25 03:08:30;;;;;;;21.27;14.50;;;4.30;68.00;;;;;;5110499;28;20027;-64
2023/01/25 03:10:58;;;;;;;23.00;14.77;;;4.30;68.00;;;;;;5104231;28;20039;-64
2023/01/25 03:13:25;;;;;;;24.63;15.63;;;4.30;68.00;;;;;;5111565;27;20066;-64
2023/01/25 03:15:57;;;;;;;21.73;14.30;;;4.30;68.10;;;;;;5113529;28;20028;-65
2023/01/25 03:18:22;;;;;;;23.10;16.05;;;4.20;68.00;;;;;;5095644;28;20482;-64
2023/01/25 03:20:50;;;;;;;23.40;15.73;;;4.30;68.10;;;;;;5113008;28;20066;-64
2023/01/25 03:23:16;;;;;;;22.37;15.23;;;4.30;68.10;;;;;;5108829;28;20397;-64
2023/01/25 03:25:42;;;;;;;23.47;14.70;;;4.20;68.10;;;;;;5113192;28;20106;-64
2023/01/25 03:28:13;;;;;;;21.27;14.50;;;4.20;68.10;;;;;;5092147;28;20433;-64
2023/01/25 03:30:39;;;;;;;25.50;16.70;;;4.20;68.10;;;;;;5096068;28;20054;-65
2023/01/25 03:33:07;;;;;;;24.53;16.33;;;4.20;68.10;;;;;;5111094;28;20452;-65
2023/01/25 03:35:32;;;;;;;22.63;15.83;;;4.20;68.10;;;;;;5112042;28;20410;-65
2023/01/25 03:37:58;;;;;;;22.80;15.30;;;4.20;68.10;;;;;;5109056;28;20032;-64
2023/01/25 03:40:24;;;;;;;21.37;14.83;;;4.20;68.00;;;;;;5112712;28;20027;-64
2023/01/25 03:42:52;;;;;;;22.33;15.00;;;4.20;68.10;;;;;;5096157;28;20043;-64
2023/01/25 03:45:18;;;;;;;22.53;15.40;;;4.20;68.10;;;;;;5094608;28;20020;-64
2023/01/25 03:47:44;;;;;;;21.83;15.20;;;4.20;68.10;;;;;;5107485;28;20429;-64
2023/01/25 03:50:10;;;;;;;21.23;14.27;;;4.10;68.00;;;;;;5089380;28;20016;-65
2023/01/25 03:53:28;;;;;;;22.17;15.30;;;4.10;68.00;;;;;;5102503;28;20032;-64
2023/01/25 03:56:01;;;;;;;23.08;15.10;;;4.20;68.00;;;;;;5104445;28;20046;-64
2023/01/25 03:58:30;;;;;;;21.37;14.27;;;4.10;68.00;;;;;;5094482;28;20066;-64
2023/01/25 04:00:58;;;;;;;22.97;14.97;;;4.10;68.00;;;;;;5095844;28;20024;-64
2023/01/25 04:03:25;;;;;;;20.40;14.27;;;4.10;68.00;;;;;;5112716;28;20364;-64
2023/01/25 04:05:53;;;;;;;22.77;15.43;;;4.10;68.00;;;;;;5109878;28;20444;-64
2023/01/25 04:08:20;;;;;;;23.87;16.23;;;4.10;68.00;;;;;;5107045;28;20024;-64
2023/01/25 04:10:54;;;;;;;23.10;15.10;;;4.10;68.00;;;;;;5111474;28;20051;-63
2023/01/25 04:13:23;;;;;;;23.33;16.60;;;4.00;68.00;;;;;;5113150;28;20019;-63
2023/01/25 04:15:50;;;;;;;22.10;15.13;;;4.10;68.00;;;;;;5108386;28;20043;-63
2023/01/25 04:18:30;;;;;;;23.67;14.70;;;4.10;68.00;;;;;;5092863;28;20384;-63
2023/01/25 04:20:56;;;;;;;25.43;16.00;;;4.10;68.00;;;;;;5087893;28;20070;-63
2023/01/25 04:23:24;;;;;;;24.57;16.43;;;4.00;67.90;;;;;;5116080;28;20055;-63
2023/01/25 04:25:55;;;;;;;24.13;15.23;;;4.10;68.00;;;;;;5107084;27;20023;-63
2023/01/25 04:28:23;;;;;;;25.10;15.83;;;4.00;67.90;;;;;;5115304;28;20023;-63
2023/01/25 04:30:49;;;;;;;23.90;16.07;;;4.00;68.00;;;;;;5113797;28;20277;-63
2023/01/25 04:33:16;;;;;;;24.20;15.07;;;4.00;68.00;;;;;;5116627;28;20020;-63
2023/01/25 04:35:43;;;;;;;23.73;15.70;;;4.00;68.10;;;;;;5108125;28;20183;-63
2023/01/25 04:38:10;;;;;;;25.83;16.20;;;4.00;68.10;;;;;;5114940;28;20034;-63
2023/01/25 04:40:39;;;;;;;23.73;15.27;;;4.00;68.10;;;;;;5097137;28;20032;-64
2023/01/25 04:43:05;;;;;;;23.87;15.50;;;4.00;68.20;;;;;;5113187;28;20047;-64
2023/01/25 04:45:32;;;;;;;25.00;16.30;;;4.00;68.20;;;;;;5114797;27;20077;-63
2023/01/25 04:48:02;;;;;;;26.43;15.70;;;4.00;68.10;;;;;;5115934;28;20027;-63
2023/01/25 04:50:29;;;;;;;24.20;15.83;;;4.00;68.20;;;;;;5094825;28;20368;-63
2023/01/25 04:52:56;;;;;;;24.47;16.60;;;4.00;68.20;;;;;;5115731;28;20027;-63
2023/01/25 04:55:22;;;;;;;23.90;16.27;;;4.00;68.20;;;;;;5114576;28;20019;-63
2023/01/25 04:57:50;;;;;;;24.27;15.80;;;4.00;68.20;;;;;;5115919;28;20028;-63
2023/01/25 05:00:17;;;;;;;25.47;17.20;;;4.00;68.20;;;;;;5113106;28;20140;-63
2023/01/25 05:02:43;;;;;;;24.23;16.30;;;4.00;68.20;;;;;;5115231;28;20027;-63
2023/01/25 05:05:09;;;;;;;24.10;15.70;;;3.90;68.20;;;;;;5115784;28;20023;-63
2023/01/25 05:07:34;;;;;;;22.60;15.10;;;3.90;68.30;;;;;;5114567;28;20119;-64
2023/01/25 05:10:00;;;;;;;25.80;16.73;;;3.90;68.20;;;;;;5107169;28;20021;-63
2023/01/25 05:12:26;;;;;;;25.90;16.63;;;4.00;68.30;;;;;;5110083;28;20140;-64
2023/01/25 05:15:01;;;;;;;26.30;16.97;;;4.00;68.30;;;;;;5107890;28;20031;-63
2023/01/25 05:17:27;;;;;;;25.10;17.70;;;3.90;68.20;;;;;;5114122;28;20023;-63
2023/01/25 05:19:54;;;;;;;26.43;16.53;;;3.90;68.30;;;;;;5098017;28;20431;-63
2023/01/25 05:22:22;;;;;;;25.73;18.00;;;3.90;68.20;;;;;;5096200;28;20028;-63
2023/01/25 05:24:51;;;;;;;27.03;17.50;;;3.90;68.30;;;;;;5089572;28;20015;-63
2023/01/25 05:27:19;;;;;;;25.90;17.33;;;3.90;68.20;;;;;;5109007;28;20366;-63
2023/01/25 05:29:55;;;;;;;26.33;17.10;;;3.90;68.20;;;;;;5115345;28;20431;-63
2023/01/25 05:32:29;;;;;;;24.77;17.40;;;3.90;68.20;;;;;;5113688;28;20047;-63
2023/01/25 05:34:55;;;;;;;29.73;18.97;;;3.90;68.20;;;;;;5109693;28;20015;-63
2023/01/25 05:37:21;;;;;;;25.87;16.10;;;3.90;68.30;;;;;;5099090;28;20425;-63
2023/01/25 05:39:54;;;;;;;27.13;17.07;;;3.90;68.30;;;;;;5109881;28;20448;-63
2023/01/25 05:42:20;;;;;;;28.30;17.77;;;3.80;68.30;;;;;;5109612;28;20042;-63
2023/01/25 05:44:46;;;;;;;26.53;17.23;;;3.90;68.40;;;;;;5108199;28;20153;-63
2023/01/25 05:47:14;;;;;;;27.80;17.77;;;3.80;68.40;;;;;;5089131;28;20027;-63
2023/01/25 05:49:40;;;;;;;29.60;18.87;;;3.80;68.50;;;;;;5114737;28;20459;-63
2023/01/25 05:52:16;;;;;;;29.20;18.23;;;3.80;68.40;;;;;;5096672;28;20081;-63
2023/01/25 05:54:42;;;;;;;28.93;17.77;;;3.80;68.40;;;;;;5114300;28;20028;-63
2023/01/25 05:57:12;;;;;;;30.17;18.73;;;3.80;68.40;;;;;;5110070;28;20043;-63
2023/01/25 05:59:38;;;;;;;27.90;17.67;;;3.80;68.40;;;;;;5083220;28;20024;-63
2023/01/25 06:02:07;;;;;;;28.60;18.50;;;3.80;68.40;;;;;;5105043;28;20027;-62
2023/01/25 06:04:32;;;;;;;31.00;19.60;;;3.80;68.40;;;;;;5104634;28;20124;-63
2023/01/25 06:06:58;;;;;;;29.60;19.10;;;3.80;68.50;;;;;;5107975;28;20465;-63
2023/01/25 06:09:25;;;;;;;28.80;18.03;;;3.80;68.50;;;;;;5114336;28;20329;-63
2023/01/25 06:11:51;;;;;;;30.17;18.63;;;3.90;68.60;;;;;;5114565;28;20015;-62
2023/01/25 06:14:17;;;;;;;27.47;17.43;;;3.80;68.50;;;;;;5114275;28;20026;-63
2023/01/25 06:16:43;;;;;;;29.23;18.03;;;3.80;68.60;;;;;;5114341;28;20061;-63
2023/01/25 06:19:27;;;;;;;28.27;19.07;;;3.80;68.60;;;;;;5115021;28;20038;-63
2023/01/25 06:22:15;;;;;;;30.07;19.17;;;3.80;68.60;;;;;;5114600;28;20084;-63
2023/01/25 06:24:42;;;;;;;27.40;17.83;;;3.80;68.60;;;;;;5114561;28;20044;-64
2023/01/25 06:27:09;;;;;;;28.30;17.80;;;3.80;68.60;;;;;;5104783;28;20347;-64
2023/01/25 06:29:35;;;;;;;27.97;17.53;;;3.70;68.60;;;;;;5110559;28;20475;-63
2023/01/25 06:32:01;;;;;;;29.60;19.20;;;3.80;68.70;;;;;;5114396;28;20024;-64
2023/01/25 06:34:26;;;;;;;31.03;19.13;;;3.80;68.70;;;;;;5115416;28;20028;-63
2023/01/25 06:36:53;;;;;;;30.63;19.93;;;3.80;68.80;;;;;;5113759;28;20084;-63
2023/01/25 06:39:18;;;;;;;29.77;19.30;;;3.80;68.80;;;;;;5111520;28;20073;-64
2023/01/25 06:41:45;;;;;;;28.20;17.93;;;3.80;68.80;;;;;;5112286;28;20037;-63
2023/01/25 06:44:11;;;;;;;28.47;18.37;;;3.80;68.80;;;;;;5112814;28;20478;-63
2023/01/25 06:46:37;;;;;;;27.70;17.73;;;3.80;68.80;;;;;;5107214;28;20028;-64
2023/01/25 06:49:03;;;;;;;28.07;17.57;;;3.80;68.90;;;;;;5109747;28;20023;-63
2023/01/25 06:51:29;;;;;;;28.73;17.93;;;3.80;68.90;;;;;;5110603;28;20497;-63
2023/01/25 06:53:54;;;;;;;28.67;18.33;;;3.80;68.90;;;;;;5113271;28;20027;-63
2023/01/25 06:56:21;;;;;;;26.97;17.53;;;3.80;69.00;;;;;;5111991;28;20081;-63
2023/01/25 06:58:48;;;;;;;28.00;17.90;;;3.80;69.00;;;;;;5112320;28;21244;-63
2023/01/25 07:01:18;;;;;;;28.17;17.73;;;3.70;69.00;;;;;;5091407;28;20064;-63
2023/01/25 07:03:56;;;;;;;29.50;18.47;;;3.70;69.70;;;;;;5103535;28;20077;-65
2023/01/25 07:06:22;;;;;;;28.33;17.57;;;3.80;69.10;;;;;;5113318;28;20027;-64
2023/01/25 07:08:48;;;;;;;27.77;16.93;;;3.80;69.00;;;;;;5106047;28;20019;-66
2023/01/25 07:11:15;;;;;;;29.37;18.03;;;3.80;68.90;;;;;;5107645;28;20018;-64
2023/01/25 07:13:42;;;;;;;28.27;17.80;;;3.80;68.80;;;;;;5111943;28;20487;-64
2023/01/25 07:16:12;;;;;;;29.63;18.37;;;3.80;68.70;;;;;;5113245;28;20164;-65
2023/01/25 07:18:37;;;;;;;28.07;17.83;;;3.80;68.70;;;;;;5113892;28;20034;-64
2023/01/25 07:21:05;;;;;;;30.23;18.47;;;3.80;68.70;;;;;;5107125;28;20036;-64
2023/01/25 07:23:32;;;;;;;29.40;18.43;;;3.80;68.70;;;;;;5087588;28;20405;-64
2023/01/25 07:26:00;;;;;;;28.47;18.37;;;3.80;68.80;;;;;;5113608;28;20019;-64
2023/01/25 07:28:26;;;;;;;31.10;19.43;;;3.80;68.80;;;;;;5113113;28;20460;-64
2023/01/25 07:30:52;;;;;;;28.77;18.47;;;3.80;68.80;;;;;;5111716;28;20448;-64
2023/01/25 07:33:18;;;;;;;29.07;17.80;;;3.80;68.80;;;;;;5111813;28;20039;-64
2023/01/25 07:35:44;;;;;;;30.87;18.60;;;3.80;68.80;;;;;;5100120;28;20047;-65
2023/01/25 07:38:09;;;;;;;30.53;18.23;;;3.70;68.80;;;;;;5102553;28;20076;-64
2023/01/25 07:40:36;;;;;;;30.43;17.43;;;3.70;68.90;;;;;;5102187;28;20105;-63
2023/01/25 07:43:02;;;;;;;29.90;18.70;;;3.70;69.00;;;;;;5102533;28;20035;-64
2023/01/25 07:45:30;;;;;;;29.37;18.43;;;3.70;69.00;;;;;;5109490;28;20028;-64
2023/01/25 07:47:57;;;;;;;29.80;18.57;;;3.70;69.00;;;;;;5114136;28;20019;-64
2023/01/25 07:50:24;;;;;;;32.60;20.97;;;3.70;69.00;;;;;;5110854;28;20058;-64
2023/01/25 07:52:50;;;;;;;32.73;19.80;;;3.70;68.90;;;;;;5113512;28;20032;-64
2023/01/25 07:55:15;;;;;;;33.87;20.77;;;3.70;68.90;;;;;;5113992;28;20027;-64
2023/01/25 07:57:41;;;;;;;33.30;20.80;;;3.80;68.90;;;;;;5115677;28;20494;-64
2023/01/25 08:00:09;;;;;;;30.23;19.07;;;3.80;68.90;;;;;;5116940;28;20024;-64
2023/01/25 08:02:38;;;;;;;32.07;20.23;;;3.80;68.90;;;;;;5116024;28;20065;-64
2023/01/25 08:05:05;;;;;;;32.63;21.13;;;3.80;68.90;;;;;;5117860;28;20024;-64
2023/01/25 08:07:31;;;;;;;31.23;20.53;;;3.80;68.90;;;;;;5102848;28;20043;-64
2023/01/25 08:09:56;;;;;;;31.53;19.20;;;3.80;69.00;;;;;;5115289;28;20392;-64
2023/01/25 08:12:24;;;;;;;30.53;18.40;;;3.80;68.90;;;;;;5115670;28;20128;-64
2023/01/25 08:14:50;;;;;;;30.50;18.53;;;3.80;68.80;;;;;;5118046;28;20039;-64
2023/01/25 08:17:16;;;;;;;30.47;19.60;;;3.80;68.80;;;;;;5116993;28;20043;-64
2023/01/25 08:19:41;;;;;;;30.63;19.03;;;3.80;68.80;;;;;;5116765;28;20369;-64
2023/01/25 08:22:07;;;;;;;31.83;19.33;;;3.80;68.80;;;;;;5117010;28;20039;-64
2023/01/25 08:24:33;;;;;;;30.70;18.57;;;3.80;68.90;;;;;;5117620;28;20432;-64
2023/01/25 08:26:59;;;;;;;30.87;18.77;;;3.80;68.90;;;;;;5116066;28;20030;-64
2023/01/25 08:29:26;;;;;;;32.13;19.23;;;3.80;68.90;;;;;;5113759;28;20424;-64
2023/01/25 08:31:53;;;;;;;30.10;18.87;;;3.80;68.80;;;;;;5117437;28;20081;-64
2023/01/25 08:34:19;;;;;;;31.07;19.27;;;3.80;68.80;;;;;;5117170;28;20115;-64
2023/01/25 08:36:45;;;;;;;30.90;18.67;;;3.80;68.80;;;;;;5116173;28;20035;-64
2023/01/25 08:39:11;;;;;;;31.67;19.40;;;3.80;68.80;;;;;;5105726;28;20521;-64
2023/01/25 08:41:37;;;;;;;33.27;20.03;;;3.80;68.80;;;;;;5117349;28;20110;-65
2023/01/25 08:44:04;;;;;;;31.67;20.27;;;3.80;68.80;;;;;;5117013;28;20039;-63
2023/01/25 08:46:32;;;;;;;33.93;20.33;;;3.80;68.90;;;;;;5116868;28;20027;-64
2023/01/25 08:49:00;;;;;;;33.27;20.73;;;3.80;68.80;;;;;;5116191;28;20067;-64
2023/01/25 08:51:26;;;;;;;32.90;19.33;;;3.80;68.80;;;;;;5101797;28;20444;-63
2023/01/25 08:53:52;;;;;;;31.77;19.17;;;3.80;68.80;;;;;;5132869;27;20368;-64
2023/01/25 08:56:18;;;;;;;33.33;20.33;;;3.80;68.80;;;;;;5115993;28;20355;-65
2023/01/25 08:58:46;;;;;;;33.10;19.97;;;3.80;68.80;;;;;;5116134;28;20043;-64
2023/01/25 09:01:14;;;;;;;29.83;19.03;;;3.80;68.80;;;;;;5097158;28;20036;-65
2023/01/25 09:03:43;;;;;;;30.67;19.17;;;3.80;68.80;;;;;;5116920;28;20104;-64
2023/01/25 09:06:09;;;;;;;32.80;19.50;;;3.80;68.70;;;;;;5098405;28;20371;-65
2023/01/25 09:08:36;;;;;;;30.73;18.40;;;3.80;68.70;;;;;;5115501;28;20031;-65
2023/01/25 09:11:07;;;;;;;32.33;19.67;;;3.70;68.70;;;;;;5116089;28;20153;-64
2023/01/25 09:13:32;;;;;;;32.83;19.50;;;3.70;68.70;;;;;;5116141;28;20024;-64
2023/01/25 09:16:06;;;;;;;34.63;20.77;;;3.70;68.70;;;;;;5116874;28;20035;-65
2023/01/25 09:18:34;;;;;;;28.73;17.83;;;3.70;68.70;;;;;;5089963;28;20185;-64
2023/01/25 09:21:08;;;;;;;32.20;19.37;;;3.70;68.80;;;;;;5118468;27;20106;-64
2023/01/25 09:23:34;;;;;;;32.63;19.50;;;3.70;68.80;;;;;;5110235;28;20115;-64
2023/01/25 09:26:01;;;;;;;31.63;19.13;;;3.70;68.80;;;;;;5116452;28;20480;-64
2023/01/25 09:28:28;;;;;;;33.33;20.67;;;3.70;68.80;;;;;;5106418;28;20046;-65
2023/01/25 09:30:59;;;;;;;34.77;20.93;;;3.70;68.80;;;;;;5113193;28;20035;-65
2023/01/25 09:33:41;;;;;;;33.17;20.30;;;3.70;68.80;;;;;;5108442;28;20027;-65
2023/01/25 09:36:08;;;;;;;35.23;20.07;;;3.80;68.80;;;;;;5118590;27;20096;-66
2023/01/25 09:38:33;;;;;;;35.90;20.47;;;3.80;68.80;;;;;;5097389;28;20028;-65
2023/01/25 09:41:28;;;;;;;34.10;20.13;;;3.80;68.80;;;;;;5110052;28;20035;-65
2023/01/25 09:44:02;;;;;;;34.53;20.20;;;3.80;68.80;;;;;;5099257;28;20051;-64
2023/01/25 09:46:54;;;;;;;31.67;19.90;;;3.80;68.80;;;;;;5096864;28;20023;-64
2023/01/25 09:49:31;;;;;;;35.75;22.02;;;3.80;68.80;;;;;;5100701;28;20036;-64
2023/01/25 09:52:40;;;;;;;33.67;20.70;;;3.80;68.70;;;;;;5110017;28;20032;-64
2023/01/25 09:55:18;;;;;;;32.17;17.70;;;3.80;68.60;;;;;;5113000;28;20034;-65
2023/01/25 09:57:47;;;;;;;33.33;19.93;;;3.80;68.60;;;;;;5104753;28;20024;-65
2023/01/25 10:00:25;;;;;;;32.57;19.80;;;3.80;68.70;;;;;;5115818;27;20081;-64
2023/01/25 10:02:57;;;;;;;32.20;18.83;;;3.80;68.70;;;;;;5113901;28;20024;-64
2023/01/25 10:05:29;;;;;;;33.67;19.47;;;3.80;68.70;;;;;;5095694;28;20020;-65
2023/01/25 10:08:19;;;;;;;33.78;20.15;;;3.80;68.70;;;;;;5116140;27;20028;-65
2023/01/25 10:10:47;;;;;;;35.17;20.03;;;3.80;68.70;;;;;;5113014;28;20424;-66
2023/01/25 10:13:21;;;;;;;34.27;20.07;;;3.70;68.60;;;;;;5116147;27;20024;-66
2023/01/25 10:15:54;;;;;;;35.07;20.07;;;3.80;68.60;;;;;;5113323;28;20431;-64
2023/01/25 10:18:32;;;;;;;38.00;21.83;;;3.80;68.60;;;;;;5113515;28;20038;-64
2023/01/25 10:21:02;;;;;;;35.07;20.33;;;3.80;68.70;;;;;;5113685;28;20063;-66
2023/01/25 10:23:47;;;;;;;36.13;21.37;;;3.80;68.60;;;;;;5112090;28;20089;-66
2023/01/25 10:26:28;;;;;;;35.93;20.57;;;3.80;68.60;;;;;;5124672;27;20118;-65
2023/01/25 10:28:59;;;;;;;35.38;20.17;;;3.80;68.60;;;;;;5101590;28;20340;-65
2023/01/25 10:31:48;;;;;;;35.90;21.47;;;3.80;68.70;;;;;;5106379;28;20039;-64
2023/01/25 10:34:20;;;;;;;34.80;20.40;;;3.80;68.60;;;;;;5117977;27;20020;-67
2023/01/25 10:37:00;;;;;;;35.10;20.23;;;3.80;68.70;;;;;;5110786;28;20031;-66
2023/01/25 10:39:26;;;;;;;35.67;19.80;;;3.90;68.70;;;;;;5106024;28;20032;-65
2023/01/25 10:41:58;;;;;;;37.90;21.27;;;3.90;68.60;;;;;;5110951;28;20043;-64
2023/01/25 10:44:24;;;;;;;36.67;22.17;;;3.90;68.60;;;;;;5114450;28;20100;-65
2023/01/25 10:47:06;;;;;;;35.20;20.00;;;3.80;68.50;;;;;;5108121;28;20093;-67
2023/01/25 10:49:54;;;;;;;36.22;20.52;;;3.80;68.60;;;;;;5112955;28;20493;-65
2023/01/25 10:52:31;;;;;;;36.77;19.63;;;3.80;68.60;;;;;;5113790;28;20483;-65
2023/01/25 10:55:12;;;;;;;31.03;18.83;;;3.80;68.70;;;;;;5101410;28;20360;-66
2023/01/25 10:57:46;;;;;;;35.90;19.97;;;3.80;68.60;;;;;;5112083;28;20035;-65
2023/01/25 11:00:39;;;;;;;33.67;20.50;;;3.80;68.60;;;;;;5121070;27;20101;-65
2023/01/25 11:03:18;;;;;;;35.03;19.97;;;3.80;68.60;;;;;;5102185;28;20082;-65
2023/01/25 11:05:56;;;;;;;36.80;20.83;;;3.90;68.60;;;;;;5093362;28;20055;-66
2023/01/25 11:08:31;;;;;;;34.67;20.17;;;3.90;68.60;;;;;;5105536;28;20159;-66
2023/01/25 11:10:58;;;;;;;36.37;20.03;;;3.90;68.60;;;;;;5111924;27;20114;-64
2023/01/25 11:13:26;;;;;;;37.97;21.97;;;3.90;68.60;;;;;;5070418;28;20127;-66
2023/01/25 11:16:24;;;;;;;37.13;22.40;;;3.80;68.70;;;;;;5101933;27;20019;-64
2023/01/25 11:18:53;;;;;;;37.03;21.00;;;3.80;68.70;;;;;;5095683;27;20452;-64
2023/01/25 11:21:24;;;;;;;39.10;22.10;;;3.80;69.00;;;;;;5103694;27;20065;-66
2023/01/25 11:23:58;;;;;;;39.97;23.33;;;3.80;68.80;;;;;;5081320;28;20134;-67
2023/01/25 11:26:24;;;;;;;39.33;21.87;;;3.90;68.80;;;;;;5096346;28;20423;-66
2023/01/25 11:29:17;;;;;;;35.83;21.67;;;3.90;68.80;;;;;;5097684;28;20111;-66
2023/01/25 11:31:52;;;;;;;40.33;22.20;;;3.90;68.80;;;;;;5104828;28;20024;-66
2023/01/25 11:34:23;;;;;;;36.73;21.10;;;3.90;68.80;;;;;;5106472;28;20020;-66
2023/01/25 11:37:30;;;;;;;38.47;21.67;;;3.90;68.80;;;;;;5096200;28;20020;-66
2023/01/25 11:40:05;;;;;;;40.03;23.07;;;3.90;68.70;;;;;;5102890;28;20047;-65
2023/01/25 11:42:37;;;;;;;38.73;21.87;;;3.90;68.90;;;;;;5105955;28;20048;-65
2023/01/25 11:45:18;;;;;;;38.60;22.80;;;3.90;68.90;;;;;;5104714;28;20093;-66
2023/01/25 11:48:01;;;;;;;39.13;22.43;;;4.00;68.90;;;;;;5087985;28;20028;-66
2023/01/25 11:50:33;;;;;;;40.77;24.83;;;4.00;68.80;;;;;;5099221;28;20039;-67
2023/01/25 11:53:22;;;;;;;40.50;23.90;;;4.00;68.70;;;;;;5099452;28;20027;-66
2023/01/25 11:56:32;;;;;;;38.80;22.83;;;4.00;68.70;;;;;;5110702;28;20038;-65
2023/01/25 11:59:49;;;;;;;37.97;21.93;;;4.10;68.70;;;;;;5109487;28;20027;-66
2023/01/25 12:02:22;;;;;;;37.37;22.07;;;4.10;68.60;;;;;;5101832;28;20035;-65
2023/01/25 12:04:56;;;;;;;40.17;24.50;;;4.10;68.70;;;;;;5104649;28;20026;-65
2023/01/25 12:07:40;;;;;;;43.63;25.17;;;4.10;68.70;;;;;;5111988;28;20059;-65
2023/01/25 12:10:18;;;;;;;44.47;24.27;;;4.10;68.70;;;;;;5112458;28;20035;-65
2023/01/25 12:12:57;;;;;;;43.63;25.30;;;4.10;68.60;;;;;;5109542;28;20321;-65
2023/01/25 12:15:36;;;;;;;40.57;23.43;;;4.10;68.60;;;;;;5108958;28;20032;-65
2023/01/25 12:18:33;;;;;;;40.90;24.47;;;4.10;68.60;;;;;;5111327;28;20024;-65
2023/01/25 12:21:43;;;;;;;39.83;20.63;;;4.10;68.60;;;;;;5105852;28;20028;-68
2023/01/25 12:24:25;;;;;;;40.10;21.97;;;4.10;68.60;;;;;;5046376;28;20029;-64
2023/01/25 12:27:11;;;;;;;43.27;24.50;;;4.10;68.60;;;;;;5054666;28;20037;-64
2023/01/25 12:29:49;;;;;;;39.97;22.23;;;4.10;68.60;;;;;;5106236;28;20040;-64
2023/01/25 12:32:23;;;;;;;38.70;21.37;;;4.10;68.60;;;;;;5111237;28;20019;-64
2023/01/25 12:35:20;;;;;;;41.73;23.77;;;4.10;68.60;;;;;;5109826;28;20088;-64
2023/01/25 12:37:48;;;;;;;43.50;24.80;;;4.10;68.60;;;;;;5098900;28;20728;-65
2023/01/25 12:40:47;;;;;;;44.73;25.43;;;4.10;68.60;;;;;;5111568;28;20071;-64
2023/01/25 12:43:19;;;;;;;41.17;22.63;;;4.00;68.60;;;;;;5100421;28;20036;-64
2023/01/25 12:45:45;;;;;;;;;;;4.10;68.80;;;;;;5104607;28;20024;-65
2023/01/25 12:48:28;;;;;;;37.97;21.07;;;4.10;68.80;;;;;;5105045;28;19990;-65
2023/01/25 12:50:59;;;;;;;42.83;23.90;;;4.10;68.80;;;;;;5109284;27;20020;-65
2023/01/25 12:53:38;;;;;;;40.83;22.77;;;4.00;68.70;;;;;;5117536;28;20509;-65
2023/01/25 12:56:08;;;;;;;40.23;22.63;;;4.10;68.70;;;;;;5112882;28;20035;-65